Time;durP1;ratioP1;P1;durP2;ratioP2;P2;SDS_P1;SDS_P2;PMS_P1;PMS_P2;Temp;Humidity;BMP_temperature;BMP_pressure;BME280_temperature;BME280_humidity;BME280_pressure;Samples;Min_cycle;Max_cycle;Signal;HPM_P1;HPM_P2
2022/11/03 04:22:20;;;;;;;9.68;4.30;;;;;;;6.81;79.54;100057.03;1087534;54;20030;-80
2022/11/03 04:23:52;;;;;;;10.90;4.75;;;;;;;6.85;79.62;100051.34;1090147;39;20731;-81
2022/11/03 04:26:48;;;;;;;8.13;4.10;;;;;;;6.86;79.18;100041.59;1087667;54;20035;-80
2022/11/03 04:27:58;;;;;;;9.43;4.55;;;;;;;6.84;79.44;100040.84;1087465;54;20061;-80
2022/11/03 04:29:03;;;;;;;10.48;4.80;;;;;;;6.83;79.38;100040.03;1088222;39;20854;-80
2022/11/03 04:30:14;;;;;;;8.27;4.80;;;;;;;6.82;79.70;100040.13;1087303;54;20030;-80
2022/11/03 04:32:39;;;;;;;12.35;5.07;;;;;;;6.60;80.11;100035.66;1087590;54;20035;-80
2022/11/03 04:33:41;;;;;;;11.45;5.32;;;;;;;6.62;79.88;100039.88;1087384;54;20110;-80
2022/11/03 04:34:48;;;;;;;11.93;5.00;;;;;;;6.58;80.23;100030.47;1087677;54;20022;-81
2022/11/03 04:35:52;;;;;;;9.57;4.85;;;;;;;6.61;80.40;100034.69;1087299;54;20030;-80
2022/11/03 04:36:57;;;;;;;9.70;4.78;;;;;;;6.63;80.34;100033.59;1089201;46;20037;-80
2022/11/03 04:38:05;;;;;;;7.85;4.25;;;;;;;6.68;80.19;100036.75;1087296;54;20050;-80
2022/11/03 04:39:20;;;;;;;8.73;4.18;;;;;;;6.69;79.80;100038.44;1087585;54;20030;-80
2022/11/03 04:40:21;;;;;;;9.32;4.65;;;;;;;6.70;79.96;100040.16;1087865;54;20053;-80
2022/11/03 04:41:30;;;;;;;10.25;4.35;;;;;;;6.74;79.86;100037.22;1088767;39;20563;-81
2022/11/03 04:42:35;;;;;;;10.02;4.28;;;;;;;6.70;79.94;100039.28;1087813;54;20061;-80
2022/11/03 04:43:43;;;;;;;11.25;5.03;;;;;;;6.71;79.83;100049.78;1087597;54;20035;-82
2022/11/03 04:44:49;;;;;;;9.07;5.25;;;;;;;6.71;79.50;100039.16;1087513;54;20031;-80
2022/11/03 04:45:52;;;;;;;10.80;4.90;;;;;;;6.69;79.39;100035.78;1087546;54;20066;-80
2022/11/03 04:47:01;;;;;;;11.48;5.03;;;;;;;6.67;79.49;100035.06;1087688;54;20075;-80
2022/11/03 04:48:11;;;;;;;10.05;4.90;;;;;;;6.60;79.24;100039.16;1088160;46;20034;-80
2022/11/03 04:49:38;;;;;;;9.32;4.68;;;;;;;6.57;79.39;100036.75;1087671;54;20011;-81
2022/11/03 04:50:56;;;;;;;11.43;4.38;;;;;;;6.56;79.67;100035.88;1087535;54;20049;-82
2022/11/03 04:54:06;;;;;;;10.60;4.75;;;;;;;6.50;79.73;100031.06;1087689;54;20048;-81
2022/11/03 04:55:47;;;;;;;12.27;5.32;;;;;;;6.50;79.82;100027.56;1088016;54;20069;-81
2022/11/03 04:56:59;;;;;;;7.75;4.13;;;;;;;6.50;79.51;100030.22;1087981;54;20034;-82
2022/11/03 04:58:20;;;;;;;9.35;4.32;;;;;;;6.54;79.65;100021.03;1087720;54;20033;-81
2022/11/03 04:59:26;;;;;;;9.15;4.75;;;;;;;6.55;79.45;100033.34;1087615;54;20030;-81
2022/11/03 05:00:30;;;;;;;8.32;4.10;;;;;;;6.58;79.22;100013.66;1087802;54;20094;-81
2022/11/03 05:01:45;;;;;;;9.27;4.53;;;;;;;6.55;79.36;100020.94;1088231;47;20046;-81
2022/11/03 05:02:53;;;;;;;9.07;4.45;;;;;;;6.50;79.18;100015.13;1087802;54;20035;-81
2022/11/03 05:42:47;;;;;;;10.02;5.45;;;;;;;6.13;79.79;99974.66;1086957;54;20868;-79
2022/11/03 05:44:00;;;;;;;10.25;5.45;;;;;;;6.14;79.93;99976.34;1091105;39;20716;-80
2022/11/03 05:47:30;;;;;;;10.30;5.30;;;;;;;6.02;80.08;99968.34;1088774;47;20127;-79
2022/11/03 05:48:42;;;;;;;9.70;5.30;;;;;;;6.09;80.05;99958.94;1088529;47;20037;-80
2022/11/03 05:50:09;;;;;;;8.75;5.32;;;;;;;6.09;79.84;99969.56;1089184;39;20641;-80
2022/11/03 05:51:24;;;;;;;8.93;4.85;;;;;;;6.12;79.91;99957.03;1090073;47;20062;-80
2022/11/03 05:52:30;;;;;;;10.38;5.05;;;;;;;6.11;79.98;99952.69;1087791;54;20031;-80
2022/11/03 05:53:45;;;;;;;10.90;5.30;;;;;;;6.12;79.96;99951.72;1087771;54;20011;-81
2022/11/03 05:54:54;;;;;;;10.88;5.20;;;;;;;6.14;80.08;99952.44;1087918;54;20075;-81
2022/11/03 05:56:05;;;;;;;12.63;5.47;;;;;;;6.16;79.78;99954.03;1088276;47;20114;-80
2022/11/03 05:57:18;;;;;;;8.40;4.97;;;;;;;6.20;79.53;99950.16;1087972;47;20368;-80
2022/11/03 05:58:31;;;;;;;10.48;5.40;;;;;;;6.21;79.60;99954.50;1087727;54;20034;-81
2022/11/03 05:59:41;;;;;;;11.02;5.70;;;;;;;6.25;79.42;99955.09;1087890;54;20030;-79
2022/11/03 06:00:47;;;;;;;9.45;4.60;;;;;;;6.28;79.36;99954.88;1087891;54;20018;-80
2022/11/03 06:01:55;;;;;;;8.65;4.97;;;;;;;6.33;79.26;99971.28;1087919;54;20031;-80
2022/11/03 06:03:03;;;;;;;6.80;3.95;;;;;;;6.36;79.18;99957.78;1087680;54;20035;-79
2022/11/03 06:04:23;;;;;;;10.70;4.25;;;;;;;6.37;79.18;99967.44;1087775;54;20038;-80
2022/11/03 06:05:28;;;;;;;8.50;4.43;;;;;;;6.43;78.92;99962.59;1087861;54;20035;-80
2022/11/03 06:06:42;;;;;;;8.80;4.47;;;;;;;6.42;78.44;99958.28;1087859;54;20030;-80
2022/11/03 06:07:49;;;;;;;9.07;4.50;;;;;;;6.42;78.88;99958.28;1087982;54;20015;-80
2022/11/03 06:09:00;;;;;;;15.18;4.78;;;;;;;6.48;78.65;99957.78;1087866;54;20053;-80
2022/11/03 06:10:26;;;;;;;7.75;4.93;;;;;;;6.46;78.44;99954.38;1088159;47;20030;-81
2022/11/03 06:11:40;;;;;;;10.80;4.75;;;;;;;6.48;78.53;99950.63;1088648;47;20054;-81
2022/11/03 06:12:46;;;;;;;9.27;5.38;;;;;;;6.47;78.63;99958.75;1087538;54;20035;-79
2022/11/03 06:14:01;;;;;;;16.13;4.32;;;;;;;6.45;78.16;99947.38;1089081;47;20050;-79
2022/11/03 06:15:20;;;;;;;7.50;4.30;;;;;;;6.45;78.50;99955.34;1088648;47;20027;-79
2022/11/03 06:17:03;;;;;;;;;;;;;;;;;;;;;
2022/11/03 06:22:09;;;;;;;13.45;5.75;;;;;;;6.14;79.21;99941.84;1087186;54;20031;-80
2022/11/03 06:25:21;;;;;;;10.57;6.40;;;;;;;6.03;79.74;99932.88;1087028;54;20734;-79
2022/11/03 06:26:27;;;;;;;11.73;6.82;;;;;;;6.06;79.51;99932.63;1088256;31;20765;-80
2022/11/03 06:27:35;;;;;;;10.25;5.85;;;;;;;6.14;79.48;99929.41;1087002;54;20107;-79
2022/11/03 06:39:25;;;;;;;14.25;7.95;;;;;;;5.98;79.68;99907.63;1087134;54;20046;-81
2022/11/03 06:40:33;;;;;;;13.10;7.82;;;;;;;5.90;80.04;99894.94;1087512;47;20046;-80
2022/11/03 06:41:38;;;;;;;14.57;7.97;;;;;;;5.93;80.21;99894.72;1087293;47;20030;-80
2022/11/03 06:42:40;;;;;;;12.98;7.75;;;;;;;5.95;79.97;99895.47;1087628;47;20034;-80
2022/11/03 06:43:50;;;;;;;12.85;7.57;;;;;;;5.99;79.94;99888.97;1087736;47;20027;-80
2022/11/03 06:44:53;;;;;;;13.00;6.88;;;;;;;5.98;80.02;99897.03;1087785;54;20034;-80
2022/11/03 06:46:24;;;;;;;12.98;6.53;;;;;;;6.05;79.94;99899.09;1088734;46;20030;-80
2022/11/03 06:49:37;;;;;;;12.35;5.75;;;;;;;6.09;79.50;99889.94;1087592;54;19939;-80
2022/11/03 06:50:48;;;;;;;10.70;5.97;;;;;;;6.19;79.42;99897.19;1087961;46;20042;-79
2022/11/03 06:52:09;;;;;;;10.98;5.78;;;;;;;6.24;78.90;99895.84;1088480;46;20026;-80
2022/11/03 06:54:14;;;;;;;12.88;6.47;;;;;;;6.27;78.63;99904.56;1088492;46;20060;-80
2022/11/03 06:56:15;;;;;;;15.05;5.90;;;;;;;6.21;78.85;99909.38;1087457;54;20030;-79
2022/11/03 06:57:18;;;;;;;10.35;5.80;;;;;;;6.30;78.77;99912.25;1088906;46;20010;-78
2022/11/03 06:59:30;;;;;;;13.85;5.80;;;;;;;6.42;78.29;99907.81;1087280;54;20034;-78
2022/11/03 07:09:40;;;;;;;10.85;4.65;;;;;;;6.71;77.62;99908.97;1087818;54;20092;-79
2022/11/03 07:10:42;;;;;;;8.05;4.53;;;;;;;6.71;77.81;99911.63;1087637;54;20061;-80
2022/11/03 07:20:17;;;;;;;18.45;6.70;;;;;;;6.59;78.54;99899.34;1087486;54;21466;-78
2022/11/03 07:21:34;;;;;;;13.85;6.55;;;;;;;6.61;78.12;99892.09;1089436;31;21036;-80
2022/11/03 07:22:36;;;;;;;12.93;6.25;;;;;;;6.67;78.21;99888.94;1087853;54;20314;-82
2022/11/03 07:23:41;;;;;;;11.98;5.65;;;;;;;6.71;78.18;99881.56;1088337;39;20711;-80
2022/11/03 07:24:47;;;;;;;10.70;6.05;;;;;;;6.74;78.03;99877.81;1087915;54;20035;-80
2022/11/03 07:25:53;;;;;;;12.85;6.43;;;;;;;6.70;78.15;99879.88;1087988;46;20065;-82
2022/11/03 07:27:15;;;;;;;15.32;6.43;;;;;;;6.66;78.24;99883.75;1087475;54;20114;-79
2022/11/03 07:28:17;;;;;;;14.07;7.00;;;;;;;6.69;78.80;99887.00;1087687;54;20061;-80
2022/11/03 07:29:24;;;;;;;12.40;6.60;;;;;;;6.72;78.63;99875.28;1087730;54;20039;-81
2022/11/03 07:30:50;;;;;;;;;;;;;;;;;;;;;
2022/11/03 07:34:03;;;;;;;14.73;6.55;;;;;;;6.78;78.92;99871.28;1086780;54;20717;-80
2022/11/03 07:35:22;;;;;;;12.70;6.47;;;;;;;6.72;78.68;99868.16;1086868;54;20065;-80
2022/11/03 07:37:05;;;;;;;17.98;7.32;;;;;;;6.75;78.82;99863.56;1087514;54;20038;-80
2022/11/03 07:38:12;;;;;;;15.70;6.28;;;;;;;6.79;78.77;99857.88;1086750;54;20041;-77
2022/11/03 07:39:21;;;;;;;13.52;6.03;;;;;;;6.83;78.73;99859.31;1087367;46;20058;-81
2022/11/03 07:40:26;;;;;;;12.32;7.07;;;;;;;6.91;78.42;99847.22;1088496;39;20617;-79
2022/11/03 07:41:34;;;;;;;15.38;6.55;;;;;;;6.93;78.02;99856.75;1089097;39;21118;-78
2022/11/03 07:42:36;;;;;;;13.55;7.22;;;;;;;6.86;78.06;99851.09;1087011;54;20042;-77
2022/11/03 07:43:40;;;;;;;24.02;8.23;;;;;;;6.89;77.92;99849.16;1087027;54;20042;-77
2022/11/03 07:44:44;;;;;;;13.50;7.00;;;;;;;6.86;78.15;99850.25;1087164;54;20041;-77
2022/11/03 07:45:49;;;;;;;14.05;7.22;;;;;;;6.85;77.91;99846.72;1086946;54;20057;-81
2022/11/03 07:46:53;;;;;;;15.70;6.15;;;;;;;6.98;77.89;99849.25;1087643;46;20054;-81
2022/11/03 07:47:54;;;;;;;10.30;6.45;;;;;;;7.04;77.84;99853.19;1087214;54;20046;-80
2022/11/03 07:49:01;;;;;;;14.27;7.10;;;;;;;6.96;77.36;99840.56;1087265;54;20115;-80
2022/11/03 07:50:13;;;;;;;11.52;6.57;;;;;;;7.07;77.27;99844.97;1087183;54;20035;-80
2022/11/03 07:51:22;;;;;;;14.82;6.32;;;;;;;7.10;77.32;99844.72;1090690;39;20292;-80
2022/11/03 07:52:28;;;;;;;13.00;6.65;;;;;;;7.09;77.40;99844.84;1087242;54;20120;-78
2022/11/03 07:53:39;;;;;;;9.52;6.00;;;;;;;7.17;77.42;99847.72;1087050;54;20046;-79
2022/11/03 07:54:43;;;;;;;11.70;5.70;;;;;;;7.26;77.16;99841.66;1087085;54;20038;-81
2022/11/03 07:55:48;;;;;;;10.05;5.53;;;;;;;7.37;77.11;99845.22;1087339;54;20057;-80
2022/11/03 07:56:55;;;;;;;10.43;5.70;;;;;;;7.40;76.74;99832.50;1087398;54;20035;-80
2022/11/03 07:58:01;;;;;;;12.43;6.22;;;;;;;7.49;76.79;99837.03;1087446;54;20098;-81
2022/11/03 08:02:52;;;;;;;8.98;4.75;;;;;;;7.79;76.00;99826.56;1087445;54;20034;-79
2022/11/03 08:03:57;;;;;;;10.20;4.72;;;;;;;7.87;75.67;99829.41;1087217;54;20106;-80
2022/11/03 08:05:02;;;;;;;9.57;5.68;;;;;;;7.95;75.61;99824.25;1087112;54;20094;-80
2022/11/03 08:06:04;;;;;;;8.65;4.97;;;;;;;8.05;75.28;99820.78;1087078;54;20034;-79
2022/11/03 08:07:08;;;;;;;9.68;5.57;;;;;;;8.10;75.00;99821.25;1087244;54;20098;-77
2022/11/03 08:10:28;;;;;;;10.00;5.82;;;;;;;8.08;74.71;99815.19;1087401;54;20093;-80
2022/11/03 08:11:34;;;;;;;13.82;7.47;;;;;;;8.05;74.25;99813.66;1087521;54;20030;-79
2022/11/03 08:12:36;;;;;;;9.68;5.43;;;;;;;8.08;74.65;99809.88;1087622;54;20057;-79
2022/11/03 08:13:40;;;;;;;13.40;6.50;;;;;;;8.05;74.81;99812.78;1087598;54;20768;-79
2022/11/03 08:14:44;;;;;;;10.23;6.13;;;;;;;8.11;74.60;99809.63;1087517;54;20106;-79
2022/11/03 08:15:46;;;;;;;15.38;6.97;;;;;;;8.14;74.59;99806.66;1087442;54;20053;-79
2022/11/03 08:16:50;;;;;;;10.88;6.20;;;;;;;8.11;74.25;99799.81;1087523;54;20037;-79
2022/11/03 08:17:51;;;;;;;12.55;6.35;;;;;;;8.16;74.39;99801.22;1088011;46;20053;-81
2022/11/03 08:18:56;;;;;;;13.35;7.00;;;;;;;8.08;74.48;99797.41;1087493;54;20042;-78
2022/11/03 08:19:58;;;;;;;10.57;6.97;;;;;;;8.11;74.46;99798.97;1089409;39;20505;-79
2022/11/03 08:21:02;;;;;;;12.27;7.00;;;;;;;8.15;74.74;99792.38;1087409;54;20026;-79
2022/11/03 08:22:06;;;;;;;13.43;6.47;;;;;;;8.14;74.48;99793.34;1089564;39;20602;-79
2022/11/03 08:23:10;;;;;;;10.55;5.97;;;;;;;8.18;74.64;99797.44;1087675;54;20026;-80
2022/11/03 08:24:15;;;;;;;11.88;6.60;;;;;;;8.21;74.57;99788.34;1087630;54;20010;-79
2022/11/03 08:25:19;;;;;;;16.63;6.68;;;;;;;8.27;74.49;99787.78;1087554;54;20034;-80
2022/11/03 08:26:55;;;;;;;7.85;5.55;;;;;;;8.37;74.01;99783.31;1087511;54;20030;-80
2022/11/03 08:28:00;;;;;;;21.58;6.13;;;;;;;8.31;74.34;99781.22;1087113;54;20057;-80
2022/11/03 08:29:05;;;;;;;12.75;5.72;;;;;;;8.32;74.57;99784.72;1087509;54;20011;-79
2022/11/03 08:30:08;;;;;;;10.32;5.80;;;;;;;8.48;74.44;99771.75;1087305;54;20042;-80
2022/11/03 08:31:13;;;;;;;11.68;5.80;;;;;;;8.57;74.04;99756.75;1087091;54;20038;-79
2022/11/03 08:32:14;;;;;;;11.07;5.55;;;;;;;8.70;73.75;99757.31;1087316;54;20089;-81
2022/11/03 08:33:19;;;;;;;10.23;5.13;;;;;;;8.74;73.71;99752.56;1087484;54;20031;-81
2022/11/03 08:34:23;;;;;;;10.77;5.75;;;;;;;8.81;73.42;99748.34;1087534;54;20064;-81
2022/11/03 08:35:25;;;;;;;10.93;5.93;;;;;;;8.89;73.27;99740.47;1087238;54;20098;-80
2022/11/03 08:36:29;;;;;;;9.85;5.47;;;;;;;8.98;73.05;99735.28;1087396;54;20045;-80
2022/11/03 08:37:34;;;;;;;12.82;6.20;;;;;;;9.00;72.88;99735.97;1087552;54;20058;-83
2022/11/03 08:38:39;;;;;;;13.65;6.30;;;;;;;9.06;72.88;99727.44;1092400;39;20740;-82
2022/11/03 08:45:21;;;;;;;10.68;5.80;;;;;;;9.44;72.17;99714.97;1087428;54;20067;-81
2022/11/03 08:46:51;;;;;;;14.30;6.53;;;;;;;9.47;71.64;99722.69;1087156;54;20045;-79
2022/11/03 08:47:53;;;;;;;11.45;6.45;;;;;;;9.36;71.66;99720.19;1087107;54;20065;-80
2022/11/03 08:48:58;;;;;;;14.05;7.22;;;;;;;9.33;71.77;99710.66;1087179;54;21412;-79
2022/11/03 08:49:59;;;;;;;13.57;6.93;;;;;;;9.30;71.25;99713.63;1087239;54;20048;-80
2022/11/03 08:51:04;;;;;;;14.45;7.40;;;;;;;9.33;71.65;99715.16;1087321;47;20094;-81
2022/11/03 08:52:05;;;;;;;17.95;7.00;;;;;;;9.41;71.50;99719.75;1087204;54;20090;-82
2022/11/03 08:53:10;;;;;;;12.25;6.03;;;;;;;9.49;71.43;99715.38;1087115;54;20030;-80
2022/11/03 08:54:11;;;;;;;9.07;5.85;;;;;;;9.65;71.31;99716.56;1087274;54;20027;-80
2022/11/03 08:55:15;;;;;;;11.35;5.88;;;;;;;9.75;71.07;99704.03;1087195;54;20037;-79
2022/11/03 08:56:17;;;;;;;10.82;6.00;;;;;;;9.83;70.91;99704.13;1087124;54;20046;-80
2022/11/03 08:57:24;;;;;;;13.98;5.47;;;;;;;10.00;70.40;99704.34;1090388;39;20728;-81
2022/11/03 08:58:36;;;;;;;12.82;6.00;;;;;;;10.07;69.81;99701.88;1087294;54;20038;-82
2022/11/03 08:59:40;;;;;;;9.48;5.70;;;;;;;10.19;70.04;99706.03;1087358;54;20034;-82
2022/11/03 09:00:44;;;;;;;9.75;5.88;;;;;;;10.28;69.74;99699.78;1087230;54;20019;-79
2022/11/03 09:01:48;;;;;;;12.82;6.63;;;;;;;10.27;69.65;99703.44;1087261;54;20030;-81
2022/11/03 09:02:52;;;;;;;10.52;5.75;;;;;;;10.38;69.22;99712.25;1087183;54;21189;-82
2022/11/03 09:03:54;;;;;;;11.93;6.45;;;;;;;10.36;69.39;99712.38;1087239;54;20046;-81
2022/11/03 09:04:58;;;;;;;16.92;6.07;;;;;;;10.32;69.39;99716.34;1087431;54;20030;-82
2022/11/03 09:06:02;;;;;;;12.93;5.95;;;;;;;10.42;69.72;99717.16;1087229;54;20042;-81
2022/11/03 09:07:03;;;;;;;9.90;5.35;;;;;;;10.55;69.42;99715.94;1087128;54;20078;-80
2022/11/03 09:08:08;;;;;;;15.13;6.10;;;;;;;10.50;68.63;99712.88;1088442;47;20805;-81
2022/11/03 09:09:10;;;;;;;12.93;6.65;;;;;;;10.59;68.91;99710.13;1087234;47;20094;-80
2022/11/03 09:10:14;;;;;;;12.70;6.50;;;;;;;10.54;68.77;99715.09;1087929;46;20022;-80
2022/11/03 09:11:17;;;;;;;10.80;7.30;;;;;;;10.53;68.72;99707.22;1086400;54;20089;-81
2022/11/03 09:12:21;;;;;;;16.17;7.63;;;;;;;10.60;68.85;99708.28;1087149;54;20034;-80
2022/11/03 09:13:26;;;;;;;9.18;5.75;;;;;;;10.69;68.65;99701.19;1087246;54;20034;-81
2022/11/03 09:14:28;;;;;;;10.43;5.65;;;;;;;10.76;68.47;99697.75;1087206;54;20062;-81
2022/11/03 09:15:35;;;;;;;13.00;5.80;;;;;;;10.72;67.87;99693.72;1087197;54;20030;-80
2022/11/03 09:16:36;;;;;;;13.43;6.60;;;;;;;10.76;68.38;99696.91;1089238;46;20930;-80
2022/11/03 09:17:40;;;;;;;11.52;6.63;;;;;;;10.75;68.17;99690.72;1087147;54;20034;-81
2022/11/03 09:18:42;;;;;;;13.07;6.20;;;;;;;10.85;68.11;99684.44;1087062;54;20023;-79
2022/11/03 09:19:46;;;;;;;12.93;6.38;;;;;;;10.97;68.10;99691.22;1087359;54;20111;-81
2022/11/03 09:20:50;;;;;;;10.10;6.07;;;;;;;11.07;68.03;99688.44;1087352;54;20070;-80
2022/11/03 09:21:52;;;;;;;11.15;5.82;;;;;;;11.14;68.10;99677.97;1087477;54;20018;-81
2022/11/03 09:22:56;;;;;;;10.70;5.80;;;;;;;11.25;67.98;99685.72;1087588;54;20054;-81
2022/11/03 09:23:59;;;;;;;13.70;5.75;;;;;;;11.35;67.72;99681.09;1087477;54;20035;-80
2022/11/03 09:27:29;;;;;;;11.73;6.43;;;;;;;11.35;66.88;99674.91;1087655;54;20042;-80
2022/11/03 09:28:31;;;;;;;18.13;6.53;;;;;;;11.27;67.46;99677.53;1087126;54;20034;-80
2022/11/03 09:29:38;;;;;;;19.67;6.90;;;;;;;11.33;67.08;99676.91;1089773;46;20015;-82
2022/11/03 09:30:43;;;;;;;12.93;6.85;;;;;;;11.39;66.98;99674.44;1088534;39;20696;-81
2022/11/03 09:31:47;;;;;;;13.80;6.40;;;;;;;11.51;67.09;99669.63;1087182;54;20061;-78
2022/11/03 09:32:56;;;;;;;13.30;7.35;;;;;;;11.56;66.78;99671.81;1088762;31;20824;-79
2022/11/03 09:33:58;;;;;;;13.85;6.50;;;;;;;11.55;66.91;99675.50;1087640;47;20038;-79
2022/11/03 09:35:02;;;;;;;13.95;6.60;;;;;;;11.55;66.64;99671.00;1087838;47;20034;-81
2022/11/03 09:36:05;;;;;;;18.33;7.32;;;;;;;11.52;66.48;99678.53;1087025;54;20042;-79
2022/11/03 09:37:09;;;;;;;15.43;7.35;;;;;;;11.39;66.86;99670.91;1087077;54;20903;-79
2022/11/03 09:38:10;;;;;;;14.88;7.22;;;;;;;11.35;66.89;99670.38;1087567;39;20685;-78
2022/11/03 09:39:28;;;;;;;;;;;;;;;;;;;;;
2022/11/03 09:40:43;;;;;;;14.50;6.25;;;;;;;11.46;66.68;99666.59;1086870;54;20035;-82
2022/11/03 09:41:45;;;;;;;18.20;7.22;;;;;;;11.61;66.62;99664.16;1087027;54;20034;-80
2022/11/03 09:42:51;;;;;;;10.55;6.30;;;;;;;11.74;65.91;99666.38;1087037;54;20030;-80
2022/11/03 09:44:00;;;;;;;14.60;6.80;;;;;;;11.77;65.81;99659.88;1087178;54;20034;-80
2022/11/03 09:45:09;;;;;;;18.27;7.68;;;;;;;11.84;66.12;99660.88;1087293;54;20038;-80
2022/11/03 09:50:20;;;;;;;14.38;8.13;;;;;;;11.98;65.76;99649.59;1087433;54;20026;-81
2022/11/03 09:55:01;;;;;;;14.85;7.07;;;;;;;12.04;65.55;99644.56;1087598;54;20043;-81
2022/11/03 09:56:21;;;;;;;17.92;7.03;;;;;;;11.93;65.77;99640.34;1088344;47;20030;-82
2022/11/03 10:01:18;;;;;;;14.43;6.15;;;;;;;11.89;66.03;99625.59;1087785;54;20195;-80
2022/11/03 10:02:26;;;;;;;15.18;7.75;;;;;;;11.96;66.41;99624.78;1087957;47;20038;-80
2022/11/03 10:05:29;;;;;;;16.75;7.55;;;;;;;11.94;66.13;99616.06;1087872;54;19983;-80
2022/11/03 10:06:34;;;;;;;13.20;6.57;;;;;;;12.00;66.30;99620.78;1087962;54;20019;-80
2022/11/03 10:07:39;;;;;;;11.68;6.05;;;;;;;12.12;66.36;99615.97;1092962;47;20124;-82
2022/11/03 10:08:49;;;;;;;11.13;6.00;;;;;;;12.27;65.77;99624.19;1089631;47;20119;-80
2022/11/03 10:09:58;;;;;;;14.45;6.60;;;;;;;12.31;65.59;99622.00;1088025;47;20010;-80
2022/11/03 10:11:00;;;;;;;13.23;6.30;;;;;;;12.36;65.77;99616.97;1088570;47;20047;-80
2022/11/03 10:12:11;;;;;;;9.73;5.38;;;;;;;12.44;65.05;99600.88;1087239;54;20031;-82
2022/11/03 10:13:40;;;;;;;11.20;6.40;;;;;;;12.46;65.46;99598.06;1087965;54;20029;-83
2022/11/03 10:17:03;;;;;;;10.25;5.50;;;;;;;12.67;65.20;99597.53;1087353;54;20022;-81
2022/11/03 10:18:33;;;;;;;;;;;;;;;;;;;;;
2022/11/03 10:21:07;;;;;;;9.98;4.80;;;;;;;13.04;64.79;99595.25;1088149;54;20054;-82
2022/11/03 10:22:45;;;;;;;8.23;4.60;;;;;;;12.98;65.11;99590.59;1088061;54;20030;-79
2022/11/03 10:23:49;;;;;;;12.48;4.57;;;;;;;12.86;65.74;99588.28;1088256;54;20031;-83
2022/11/03 10:26:49;;;;;;;8.82;4.85;;;;;;;13.08;65.21;99586.69;1087310;54;20030;-79
2022/11/03 10:28:43;;;;;;;8.50;4.20;;;;;;;13.14;64.96;99582.50;1087882;54;20030;-83
2022/11/03 10:29:44;;;;;;;14.48;5.30;;;;;;;12.87;65.90;99579.22;1087648;54;20034;-81
2022/11/03 10:30:57;;;;;;;11.90;5.15;;;;;;;13.03;65.21;99580.22;1090960;31;20933;-82
2022/11/03 10:32:01;;;;;;;9.15;4.53;;;;;;;13.10;65.53;99570.44;1088157;39;20845;-81
2022/11/03 10:33:32;;;;;;;7.60;4.35;;;;;;;13.20;64.81;99568.41;1087315;54;20046;-81
2022/11/03 10:35:31;;;;;;;13.32;5.38;;;;;;;12.89;65.54;99566.47;1087317;54;20014;-82
2022/11/03 10:36:40;;;;;;;11.00;5.05;;;;;;;13.13;65.43;99567.41;1087500;54;20030;-82
2022/11/03 10:37:41;;;;;;;9.57;4.28;;;;;;;13.01;65.46;99563.44;1087497;54;20108;-82
2022/11/03 10:39:31;;;;;;;9.10;4.13;;;;;;;13.17;65.12;99568.75;1087323;54;20030;-82
2022/11/03 10:40:47;;;;;;;6.53;3.75;;;;;;;13.27;64.74;99563.19;1087419;54;20798;-83
2022/11/03 10:42:18;;;;;;;12.02;3.85;;;;;;;13.25;64.57;99562.50;1087751;54;20043;-81
2022/11/03 10:43:36;;;;;;;11.27;4.15;;;;;;;13.16;65.28;99561.69;1087510;46;20027;-81
2022/11/03 10:44:40;;;;;;;9.27;4.72;;;;;;;13.19;65.08;99561.34;1087514;54;20035;-79
2022/11/03 10:45:42;;;;;;;8.13;4.40;;;;;;;13.34;64.87;99564.16;1087396;54;20034;-81
2022/11/03 10:46:59;;;;;;;6.43;3.50;;;;;;;13.47;64.63;99558.25;1087402;54;20039;-81
2022/11/03 10:48:05;;;;;;;9.20;3.85;;;;;;;13.52;64.28;99555.03;1087373;54;20057;-77
2022/11/03 10:49:17;;;;;;;9.48;3.67;;;;;;;13.51;63.99;99546.13;1087488;54;20030;-83
2022/11/03 10:50:45;;;;;;;6.30;3.53;;;;;;;13.54;63.76;99540.41;1088237;46;20030;-82
2022/11/03 10:52:19;;;;;;;7.30;3.63;;;;;;;13.55;63.90;99539.41;1087428;47;21053;-82
2022/11/03 10:53:59;;;;;;;8.40;4.68;;;;;;;13.56;63.51;99533.03;1087418;54;20057;-82
2022/11/03 10:55:05;;;;;;;6.93;3.33;;;;;;;13.61;63.96;99521.75;1087480;54;20050;-82
2022/11/03 10:56:09;;;;;;;6.97;3.40;;;;;;;13.59;63.73;99522.94;1087821;54;20126;-80
2022/11/03 10:57:20;;;;;;;6.65;3.22;;;;;;;13.67;63.51;99520.19;1126574;31;20753;-82
2022/11/03 10:58:28;;;;;;;8.35;3.15;;;;;;;13.67;63.22;99522.88;1087318;54;20038;-78
2022/11/03 10:59:36;;;;;;;5.60;2.95;;;;;;;13.72;63.50;99521.34;1087416;54;20445;-78
2022/11/03 11:00:40;;;;;;;9.27;3.58;;;;;;;13.66;63.55;99521.22;1087155;54;20034;-78
2022/11/03 11:02:21;;;;;;;8.13;3.10;;;;;;;13.71;63.23;99514.28;1087450;54;20050;-80
2022/11/03 11:03:25;;;;;;;9.05;3.20;;;;;;;13.81;63.56;99505.16;1087879;46;20050;-78
2022/11/03 11:04:29;;;;;;;6.93;2.85;;;;;;;13.82;63.09;99502.28;1087598;54;20022;-80
2022/11/03 11:05:34;;;;;;;6.80;2.88;;;;;;;13.88;63.19;99501.59;1088208;46;20065;-78
2022/11/03 11:06:35;;;;;;;10.70;3.17;;;;;;;13.89;63.18;99497.03;1087501;54;20061;-79
2022/11/03 11:08:14;;;;;;;5.43;2.88;;;;;;;13.98;62.75;99500.50;1087280;54;20014;-79
2022/11/03 11:09:35;;;;;;;7.20;3.08;;;;;;;13.99;63.08;99492.25;1089309;39;20205;-79
2022/11/03 11:10:42;;;;;;;6.05;3.10;;;;;;;14.07;62.76;99486.00;1087202;54;20832;-79
2022/11/03 11:12:01;;;;;;;5.50;3.13;;;;;;;14.00;62.53;99491.25;1087254;54;20034;-79
2022/11/03 11:13:26;;;;;;;7.28;3.15;;;;;;;14.07;62.13;99486.00;1087327;54;20793;-82
2022/11/03 11:14:36;;;;;;;8.40;3.17;;;;;;;14.06;62.41;99488.84;1087766;39;20736;-79
2022/11/03 11:15:42;;;;;;;;;;;;;;;13.99;62.27;99489.56;1087426;54;21117;-80
2022/11/03 11:16:49;;;;;;;6.18;2.67;;;;;;;14.09;62.42;99486.63;1087372;54;19942;-80
2022/11/03 11:17:53;;;;;;;6.40;3.15;;;;;;;14.06;62.37;99478.94;1087288;54;20034;-80
2022/11/03 11:19:03;;;;;;;8.48;3.35;;;;;;;14.12;62.38;99480.06;1087348;54;20807;-79
2022/11/03 11:20:31;;;;;;;5.97;3.00;;;;;;;14.08;62.22;99476.06;1087180;54;20051;-79
2022/11/03 11:22:10;;;;;;;6.18;3.13;;;;;;;14.14;62.31;99469.94;1087392;47;21160;-80
2022/11/03 11:23:51;;;;;;;6.78;3.53;;;;;;;13.99;62.72;99465.38;1087199;54;20072;-81
2022/11/03 11:24:58;;;;;;;;;;;;;;;14.00;62.84;99460.84;1087490;54;20038;-79
2022/11/03 11:26:31;;;;;;;6.35;3.63;;;;;;;14.06;62.78;99460.13;1087235;54;19942;-79
2022/11/03 11:28:08;;;;;;;7.53;3.53;;;;;;;14.12;62.79;99448.63;1087420;54;20054;-79
2022/11/03 11:29:40;;;;;;;6.30;3.22;;;;;;;14.16;62.60;99444.59;1087133;54;20086;-81
2022/11/03 11:31:20;;;;;;;7.90;3.15;;;;;;;14.12;62.35;99443.25;1086979;54;20026;-80
2022/11/03 11:32:57;;;;;;;6.85;3.55;;;;;;;14.16;62.63;99436.53;1087203;54;20061;-79
2022/11/03 11:34:40;;;;;;;6.78;3.53;;;;;;;14.12;62.75;99442.44;1087547;54;20034;-78
2022/11/03 11:36:17;;;;;;;7.03;3.72;;;;;;;14.13;62.81;99442.25;1087668;54;20039;-79
2022/11/03 11:37:36;;;;;;;7.18;2.90;;;;;;;14.18;62.44;99437.16;1087445;54;20031;-79
2022/11/03 11:38:54;;;;;;;7.55;3.42;;;;;;;14.29;62.46;99435.03;1086976;54;20094;-79
2022/11/03 11:40:01;;;;;;;6.15;3.17;;;;;;;14.39;62.08;99427.53;1087104;54;20031;-79
2022/11/03 11:41:02;;;;;;;8.88;4.03;;;;;;;14.28;62.81;99434.22;1087265;54;20042;-80
2022/11/03 11:42:12;;;;;;;8.98;4.13;;;;;;;14.17;62.77;99437.34;1087547;54;20039;-79
2022/11/03 11:43:25;;;;;;;8.52;4.07;;;;;;;14.31;62.54;99425.75;1087511;54;20118;-81
2022/11/03 11:45:02;;;;;;;7.97;3.40;;;;;;;14.19;62.38;99424.56;1087557;54;20038;-80
2022/11/03 11:46:38;;;;;;;10.30;5.22;;;;;;;14.10;62.56;99423.78;1086930;54;20045;-79
2022/11/03 11:47:52;;;;;;;9.45;4.68;;;;;;;14.26;62.39;99424.66;1086301;54;20066;-78
2022/11/03 11:49:14;;;;;;;10.18;3.65;;;;;;;14.30;61.94;99420.56;1087539;54;20038;-77
2022/11/03 11:50:30;;;;;;;7.45;3.22;;;;;;;14.19;62.04;99420.00;1087428;54;20042;-78
2022/11/03 11:51:33;;;;;;;9.00;3.35;;;;;;;14.17;62.20;99424.72;1088726;39;20898;-81
2022/11/03 11:52:43;;;;;;;7.43;3.47;;;;;;;14.37;62.07;99418.81;1087600;54;20035;-80
2022/11/03 11:53:53;;;;;;;7.75;3.20;;;;;;;14.44;61.66;99409.00;1087555;54;20038;-82
2022/11/03 11:54:55;;;;;;;6.68;3.00;;;;;;;14.49;61.32;99411.97;1087620;54;20027;-82
2022/11/03 11:56:04;;;;;;;6.65;3.03;;;;;;;14.57;61.04;99412.88;1087291;54;20026;-78
2022/11/03 11:57:34;;;;;;;5.75;2.75;;;;;;;14.55;61.09;99409.56;1087268;54;20046;-81